Time;durP1;ratioP1;P1;durP2;ratioP2;P2;SDS_P1;SDS_P2;PMS_P1;PMS_P2;Temp;Humidity;BMP_temperature;BMP_pressure;BME280_temperature;BME280_humidity;BME280_pressure;Samples;Min_cycle;Max_cycle;Signal;HPM_P1;HPM_P2
2022/11/18 00:01:59;;;;;;;24.80;18.25;;;;;;;;;;6266646;28;20057;-63
2022/11/18 00:05:00;;;;;;;24.30;17.83;;;;;;;;;;6268809;28;20363;-62
2022/11/18 00:08:02;;;;;;;25.92;18.20;;;;;;;;;;6269483;28;20056;-63
2022/11/18 00:11:07;;;;;;;23.25;17.20;;;;;;;;;;6268441;28;20048;-60
2022/11/18 00:14:18;;;;;;;23.48;18.20;;;;;;;;;;6267655;28;20087;-63
2022/11/18 00:17:20;;;;;;;24.65;18.25;;;;;;;;;;6269534;28;20159;-63
2022/11/18 00:20:21;;;;;;;25.63;18.83;;;;;;;;;;6269801;28;20044;-62
2022/11/18 00:23:23;;;;;;;28.52;19.38;;;;;;;;;;6262314;28;20052;-61
2022/11/18 00:26:24;;;;;;;26.10;19.67;;;;;;;;;;6267934;28;20542;-63
2022/11/18 00:29:27;;;;;;;26.08;19.13;;;;;;;;;;6258717;28;20103;-62
2022/11/18 00:32:29;;;;;;;26.75;19.98;;;;;;;;;;6267249;28;20308;-61
2022/11/18 00:35:31;;;;;;;28.15;20.17;;;;;;;;;;6266647;28;20328;-62
2022/11/18 00:38:32;;;;;;;26.92;19.83;;;;;;;;;;6268699;28;20332;-62
2022/11/18 00:44:51;;;;;;;29.15;20.63;;;;;;;;;;6268355;28;20052;-62
2022/11/18 00:47:52;;;;;;;27.52;20.42;;;;;;;;;;6264942;28;20056;-61
2022/11/18 00:50:55;;;;;;;28.30;20.67;;;;;;;;;;6267038;28;20049;-62
2022/11/18 00:53:57;;;;;;;27.35;19.70;;;;;;;;;;6262832;28;20100;-62
2022/11/18 00:56:59;;;;;;;27.92;19.58;;;;;;;;;;6264867;28;20053;-63
2022/11/18 01:00:02;;;;;;;24.75;18.88;;;;;;;;;;6269351;28;20052;-63
2022/11/18 01:03:04;;;;;;;26.50;19.30;;;;;;;;;;6264890;28;20053;-63
2022/11/18 01:06:06;;;;;;;25.38;19.17;;;;;;;;;;6268992;28;20079;-62
2022/11/18 01:09:07;;;;;;;24.88;18.23;;;;;;;;;;6267968;28;20053;-62
2022/11/18 01:15:31;;;;;;;26.13;18.13;;;;;;;;;;6258571;28;20087;-61
2022/11/18 01:18:32;;;;;;;25.95;19.35;;;;;;;;;;6267023;28;20050;-63
2022/11/18 01:21:34;;;;;;;23.90;19.02;;;;;;;;;;6250340;28;20056;-63
2022/11/18 01:24:36;;;;;;;24.67;18.70;;;;;;;;;;6257716;28;20049;-63
2022/11/18 01:27:37;;;;;;;22.45;17.42;;;;;;;;;;6264471;28;20356;-63
2022/11/18 01:30:41;;;;;;;24.38;17.52;;;;;;;;;;6266253;28;20122;-63
2022/11/18 01:33:43;;;;;;;;;;;;;;;;;;6268779;28;20099;-61
2022/11/18 01:36:44;;;;;;;26.35;18.60;;;;;;;;;;6268584;28;20089;-63
2022/11/18 01:39:46;;;;;;;23.88;17.60;;;;;;;;;;6268585;28;20276;-63
2022/11/18 01:42:47;;;;;;;26.90;18.73;;;;;;;;;;6270458;28;20091;-63
2022/11/18 01:45:53;;;;;;;24.52;18.23;;;;;;;;;;6262831;28;20337;-64
2022/11/18 01:49:00;;;;;;;24.73;18.25;;;;;;;;;;6266627;28;20108;-63
2022/11/18 01:52:01;;;;;;;23.13;18.02;;;;;;;;;;6260555;28;20068;-62
2022/11/18 01:55:06;;;;;;;24.45;18.38;;;;;;;;;;6267655;28;20057;-61
2022/11/18 01:58:12;;;;;;;23.58;17.95;;;;;;;;;;6267169;28;20057;-63
2022/11/18 02:01:15;;;;;;;25.95;17.73;;;;;;;;;;6267394;28;20049;-62
2022/11/18 02:04:17;;;;;;;27.50;18.60;;;;;;;;;;6267296;28;20072;-63
2022/11/18 02:07:19;;;;;;;23.45;17.48;;;;;;;;;;6264719;28;20505;-63
2022/11/18 02:10:23;;;;;;;27.08;18.85;;;;;;;;;;6267639;28;20086;-63
2022/11/18 02:13:25;;;;;;;25.60;18.45;;;;;;;;;;6265283;28;20108;-62
2022/11/18 02:16:36;;;;;;;27.25;19.67;;;;;;;;;;6266127;28;20049;-62
2022/11/18 02:19:51;;;;;;;26.38;18.38;;;;;;;;;;6255658;28;20056;-62
2022/11/18 02:23:18;;;;;;;27.52;19.15;;;;;;;;;;6272100;28;20044;-63
2022/11/18 02:26:59;;;;;;;25.13;18.67;;;;;;;;;;6265846;28;20394;-60
2022/11/18 02:30:07;;;;;;;24.95;17.73;;;;;;;;;;6262800;28;20053;-62
2022/11/18 02:33:11;;;;;;;28.98;18.73;;;;;;;;;;6264162;28;20241;-63
2022/11/18 02:36:17;;;;;;;26.27;19.02;;;;;;;;;;6266893;28;20068;-63
2022/11/18 02:39:22;;;;;;;26.90;19.83;;;;;;;;;;6254014;28;20072;-63
2022/11/18 02:42:25;;;;;;;25.98;19.38;;;;;;;;;;6265127;28;20273;-62
2022/11/18 02:45:28;;;;;;;27.95;18.52;;;;;;;;;;6266490;28;20103;-63
2022/11/18 02:48:33;;;;;;;26.80;19.00;;;;;;;;;;6264779;28;20091;-63
2022/11/18 02:51:35;;;;;;;26.05;18.75;;;;;;;;;;6264877;28;20348;-62
2022/11/18 02:54:40;;;;;;;26.45;19.17;;;;;;;;;;6263425;28;20053;-63
2022/11/18 02:57:43;;;;;;;26.52;19.75;;;;;;;;;;6272031;28;20064;-63
2022/11/18 03:00:53;;;;;;;27.27;20.30;;;;;;;;;;6265692;28;20065;-63
2022/11/18 03:03:55;;;;;;;26.55;18.48;;;;;;;;;;6267430;28;20053;-63
2022/11/18 03:07:02;;;;;;;25.77;19.00;;;;;;;;;;6266469;28;20099;-61
2022/11/18 03:10:04;;;;;;;25.80;18.83;;;;;;;;;;6271099;28;20251;-63
2022/11/18 03:13:12;;;;;;;28.25;20.35;;;;;;;;;;6269828;28;20087;-61
2022/11/18 03:16:18;;;;;;;29.58;19.55;;;;;;;;;;6271324;28;20045;-62
2022/11/18 03:19:28;;;;;;;29.05;20.17;;;;;;;;;;6267874;28;20386;-62
2022/11/18 03:22:34;;;;;;;26.85;19.58;;;;;;;;;;6270152;28;20277;-63
2022/11/18 03:25:40;;;;;;;28.58;20.05;;;;;;;;;;6261386;28;20061;-63
2022/11/18 03:28:46;;;;;;;28.27;19.38;;;;;;;;;;6270703;28;20060;-63
2022/11/18 03:31:53;;;;;;;28.58;20.48;;;;;;;;;;6269209;28;20328;-63
2022/11/18 03:34:57;;;;;;;26.05;19.55;;;;;;;;;;6266826;28;20063;-62
2022/11/18 03:38:03;;;;;;;27.40;19.75;;;;;;;;;;6273523;28;20123;-63
2022/11/18 03:41:09;;;;;;;27.40;18.58;;;;;;;;;;6268904;28;20248;-63
2022/11/18 03:44:14;;;;;;;27.35;19.38;;;;;;;;;;6269976;28;20061;-63
2022/11/18 03:47:20;;;;;;;29.00;18.65;;;;;;;;;;6268883;28;20057;-63
2022/11/18 03:50:26;;;;;;;25.58;17.98;;;;;;;;;;6273173;28;20363;-62
2022/11/18 03:53:30;;;;;;;26.00;18.35;;;;;;;;;;6266048;28;20092;-62
2022/11/18 03:56:37;;;;;;;25.50;18.13;;;;;;;;;;6269256;28;20053;-62
2022/11/18 03:59:43;;;;;;;28.38;19.38;;;;;;;;;;6253707;28;20203;-62
2022/11/18 04:02:48;;;;;;;26.58;19.58;;;;;;;;;;6275567;28;20166;-63
2022/11/18 04:05:51;;;;;;;23.80;17.75;;;;;;;;;;6271056;28;20072;-63
2022/11/18 04:08:56;;;;;;;25.42;17.83;;;;;;;;;;6274356;28;20052;-61
2022/11/18 04:12:03;;;;;;;27.88;19.08;;;;;;;;;;6269214;28;20095;-63
2022/11/18 04:15:06;;;;;;;25.33;18.52;;;;;;;;;;6266883;28;20057;-63
2022/11/18 04:18:10;;;;;;;26.33;18.73;;;;;;;;;;6268410;28;20060;-64
2022/11/18 04:21:11;;;;;;;25.58;18.00;;;;;;;;;;6268630;28;20049;-63
2022/11/18 04:24:13;;;;;;;24.80;18.15;;;;;;;;;;6267782;28;20213;-63
2022/11/18 04:27:15;;;;;;;26.00;18.67;;;;;;;;;;6267162;28;20392;-62
2022/11/18 04:30:17;;;;;;;28.48;19.58;;;;;;;;;;6259555;28;20049;-62
2022/11/18 04:33:20;;;;;;;28.33;18.77;;;;;;;;;;6266755;28;20057;-62
2022/11/18 04:36:22;;;;;;;27.58;19.77;;;;;;;;;;6264901;28;20138;-63
2022/11/18 04:39:23;;;;;;;30.33;20.35;;;;;;;;;;6258362;28;20244;-64
2022/11/18 04:42:25;;;;;;;28.60;20.25;;;;;;;;;;6262780;28;20049;-64
2022/11/18 04:45:27;;;;;;;29.35;20.25;;;;;;;;;;6269744;28;20064;-62
2022/11/18 04:48:30;;;;;;;27.30;19.50;;;;;;;;;;6266681;28;20214;-64
2022/11/18 04:51:31;;;;;;;31.92;20.80;;;;;;;;;;6267873;28;20067;-63
2022/11/18 04:54:33;;;;;;;27.65;19.13;;;;;;;;;;6269653;28;20210;-64
2022/11/18 04:57:35;;;;;;;29.65;20.60;;;;;;;;;;6265086;28;20091;-61
2022/11/18 05:00:36;;;;;;;29.75;19.75;;;;;;;;;;6264294;28;20053;-62
2022/11/18 05:03:39;;;;;;;27.50;18.38;;;;;;;;;;6267100;28;20200;-62
2022/11/18 05:06:41;;;;;;;28.08;18.42;;;;;;;;;;6268033;28;20661;-63
2022/11/18 05:09:43;;;;;;;26.88;19.33;;;;;;;;;;6265864;28;20236;-63
2022/11/18 05:12:49;;;;;;;27.15;19.00;;;;;;;;;;6267369;28;20042;-65
2022/11/18 05:15:51;;;;;;;28.42;18.63;;;;;;;;;;6266063;28;20041;-63
2022/11/18 05:18:55;;;;;;;26.83;18.02;;;;;;;;;;6264019;28;20276;-66
2022/11/18 05:21:57;;;;;;;25.17;17.92;;;;;;;;;;6267399;28;20053;-65
2022/11/18 05:24:59;;;;;;;29.15;19.42;;;;;;;;;;6267488;28;20136;-63
2022/11/18 05:28:00;;;;;;;28.55;20.52;;;;;;;;;;6260418;28;20341;-64
2022/11/18 05:31:07;;;;;;;31.02;19.73;;;;;;;;;;6266760;28;20333;-64
2022/11/18 05:34:10;;;;;;;28.48;20.17;;;;;;;;;;6260280;28;20236;-63
2022/11/18 05:37:12;;;;;;;30.77;19.67;;;;;;;;;;6260489;28;20057;-65
2022/11/18 05:40:14;;;;;;;32.38;21.27;;;;;;;;;;6257864;28;20041;-64
2022/11/18 05:43:14;;;;;;;32.00;21.20;;;;;;;;;;6268622;28;20328;-65
2022/11/18 05:46:16;;;;;;;28.27;19.85;;;;;;;;;;6262380;28;20092;-64
2022/11/18 05:49:19;;;;;;;32.10;20.63;;;;;;;;;;6265379;28;20407;-64
2022/11/18 05:52:20;;;;;;;33.10;21.25;;;;;;;;;;6265342;28;20049;-65
2022/11/18 05:55:24;;;;;;;33.20;21.02;;;;;;;;;;6265698;28;20103;-65
2022/11/18 05:58:26;;;;;;;30.00;20.45;;;;;;;;;;6261520;28;20293;-65
2022/11/18 06:01:30;;;;;;;28.52;20.10;;;;;;;;;;6265212;28;20144;-65
2022/11/18 06:04:36;;;;;;;31.23;20.10;;;;;;;;;;6262568;28;20052;-65
2022/11/18 06:07:40;;;;;;;29.88;19.73;;;;;;;;;;6265106;28;20271;-62
2022/11/18 06:10:43;;;;;;;29.40;20.17;;;;;;;;;;6265226;28;20068;-65
2022/11/18 06:13:49;;;;;;;34.33;21.27;;;;;;;;;;6256291;28;20159;-64
2022/11/18 06:16:53;;;;;;;27.58;19.23;;;;;;;;;;6253875;28;20067;-64
2022/11/18 06:19:57;;;;;;;30.77;20.52;;;;;;;;;;6266044;28;20053;-64
2022/11/18 06:23:00;;;;;;;34.10;21.77;;;;;;;;;;6264431;28;20059;-65
2022/11/18 06:26:02;;;;;;;30.77;20.27;;;;;;;;;;6258064;28;20045;-64
2022/11/18 06:29:05;;;;;;;29.40;20.17;;;;;;;;;;6265677;28;20552;-64
2022/11/18 06:32:07;;;;;;;28.90;20.77;;;;;;;;;;6268712;28;20075;-64
2022/11/18 06:35:10;;;;;;;27.25;19.95;;;;;;;;;;6266824;28;20072;-65
2022/11/18 06:38:12;;;;;;;32.53;20.77;;;;;;;;;;6266600;28;20052;-62
2022/11/18 06:41:14;;;;;;;30.15;20.67;;;;;;;;;;6266542;28;20053;-63
2022/11/18 06:44:15;;;;;;;28.45;20.70;;;;;;;;;;6266558;28;20111;-61
2022/11/18 06:47:17;;;;;;;27.98;20.40;;;;;;;;;;6266761;28;20048;-63
2022/11/18 06:50:20;;;;;;;29.95;21.38;;;;;;;;;;6267983;28;20053;-65
2022/11/18 06:53:22;;;;;;;29.83;21.42;;;;;;;;;;6266083;28;20045;-64
2022/11/18 06:56:24;;;;;;;28.83;20.30;;;;;;;;;;6266011;28;20060;-65
2022/11/18 06:59:25;;;;;;;29.52;20.65;;;;;;;;;;6266501;28;20049;-65
2022/11/18 07:02:27;;;;;;;30.00;20.35;;;;;;;;;;6266645;28;20263;-64
2022/11/18 07:05:30;;;;;;;30.00;20.63;;;;;;;;;;6266331;28;20136;-66
2022/11/18 07:08:34;;;;;;;29.00;20.90;;;;;;;;;;6265096;28;20228;-62
2022/11/18 07:11:37;;;;;;;27.23;19.73;;;;;;;;;;6264715;28;20099;-65
2022/11/18 07:14:38;;;;;;;32.03;21.25;;;;;;;;;;6265581;28;20222;-62
2022/11/18 07:17:40;;;;;;;30.95;20.83;;;;;;;;;;6255788;28;20045;-66
2022/11/18 07:20:43;;;;;;;31.77;20.73;;;;;;;;;;6262549;28;20057;-66
2022/11/18 07:23:45;;;;;;;29.65;20.48;;;;;;;;;;6266892;28;20284;-66
2022/11/18 07:26:47;;;;;;;27.15;19.02;;;;;;;;;;6261086;28;20449;-66
2022/11/18 07:29:48;;;;;;;30.30;21.45;;;;;;;;;;6261270;28;20119;-65
2022/11/18 07:32:50;;;;;;;27.15;20.48;;;;;;;;;;6256504;28;20241;-63
2022/11/18 07:35:53;;;;;;;30.80;21.05;;;;;;;;;;6254022;28;20061;-65
2022/11/18 07:38:55;;;;;;;29.48;20.60;;;;;;;;;;6260295;28;20060;-65
2022/11/18 07:41:57;;;;;;;32.72;22.08;;;;;;;;;;6255058;28;20065;-65
2022/11/18 07:44:58;;;;;;;27.92;21.55;;;;;;;;;;6262241;28;20057;-62
2022/11/18 07:48:00;;;;;;;32.90;23.48;;;;;;;;;;6261392;28;20235;-64
2022/11/18 07:51:03;;;;;;;33.53;23.80;;;;;;;;;;6266071;28;20611;-65
2022/11/18 07:54:08;;;;;;;38.03;26.63;;;;;;;;;;6271676;28;20061;-65
2022/11/18 07:57:10;;;;;;;37.55;25.38;;;;;;;;;;6267552;28;20067;-64
2022/11/18 08:00:12;;;;;;;37.83;26.60;;;;;;;;;;6266947;28;20052;-65
2022/11/18 08:03:14;;;;;;;39.28;27.45;;;;;;;;;;6266620;28;20138;-65
2022/11/18 08:06:18;;;;;;;38.15;25.83;;;;;;;;;;6266067;28;20053;-65
2022/11/18 08:09:20;;;;;;;37.15;25.95;;;;;;;;;;6267575;28;20151;-64
2022/11/18 08:12:22;;;;;;;39.22;25.48;;;;;;;;;;6268315;28;20069;-65
2022/11/18 08:15:24;;;;;;;38.22;26.17;;;;;;;;;;6267912;28;20071;-63
2022/11/18 08:18:25;;;;;;;35.20;24.25;;;;;;;;;;6260130;28;20057;-65
2022/11/18 08:21:28;;;;;;;39.17;26.13;;;;;;;;;;6267649;28;20049;-64
2022/11/18 08:24:30;;;;;;;36.27;24.17;;;;;;;;;;6270145;28;20052;-64
2022/11/18 08:27:32;;;;;;;40.78;25.75;;;;;;;;;;6271759;28;20053;-65
2022/11/18 08:30:34;;;;;;;37.53;24.95;;;;;;;;;;6266489;28;20053;-63
2022/11/18 08:33:36;;;;;;;41.92;24.77;;;;;;;;;;6262468;28;20151;-63
2022/11/18 08:36:39;;;;;;;40.72;25.90;;;;;;;;;;6267750;28;20052;-65
2022/11/18 08:39:41;;;;;;;43.47;24.30;;;;;;;;;;6268778;28;20234;-65
2022/11/18 08:42:42;;;;;;;36.17;23.80;;;;;;;;;;6266408;28;20091;-64
2022/11/18 08:45:44;;;;;;;36.00;23.25;;;;;;;;;;6262055;28;20150;-65
2022/11/18 08:48:45;;;;;;;34.80;22.60;;;;;;;;;;6268962;28;20057;-66
2022/11/18 08:51:48;;;;;;;32.97;22.70;;;;;;;;;;6267208;28;20099;-65
2022/11/18 08:54:50;;;;;;;29.53;21.03;;;;;;;;;;6268500;28;20254;-65
2022/11/18 08:57:52;;;;;;;31.95;20.90;;;;;;;;;;6265037;28;20087;-65
2022/11/18 09:00:53;;;;;;;32.50;21.08;;;;;;;;;;6269699;28;20084;-64
2022/11/18 09:03:56;;;;;;;28.13;20.02;;;;;;;;;;6266509;28;20045;-65
2022/11/18 09:06:59;;;;;;;30.98;19.70;;;;;;;;;;6265166;28;20217;-65
2022/11/18 09:10:01;;;;;;;30.20;19.63;;;;;;;;;;6264491;28;20325;-65
2022/11/18 09:13:03;;;;;;;25.30;19.63;;;;;;;;;;6266893;28;20202;-62
2022/11/18 09:16:05;;;;;;;27.63;19.27;;;;;;;;;;6265838;28;20056;-65
2022/11/18 09:19:07;;;;;;;29.73;20.92;;;;;;;;;;6261394;28;20050;-64
2022/11/18 09:22:10;;;;;;;31.35;22.02;;;;;;;;;;6263935;28;20116;-65
2022/11/18 09:25:12;;;;;;;30.83;20.43;;;;;;;;;;6267644;28;20060;-64
2022/11/18 09:28:13;;;;;;;30.88;21.17;;;;;;;;;;6264851;28;20053;-65
2022/11/18 09:31:17;;;;;;;32.28;19.65;;;;;;;;;;6269495;28;20053;-64
2022/11/18 09:34:19;;;;;;;25.95;17.65;;;;;;;;;;6266745;28;20045;-65
2022/11/18 09:37:22;;;;;;;22.55;15.60;;;;;;;;;;6267645;28;20147;-64
2022/11/18 09:40:24;;;;;;;23.45;15.90;;;;;;;;;;6266923;28;20049;-65
2022/11/18 09:43:28;;;;;;;18.25;12.70;;;;;;;;;;6269014;28;20052;-65
2022/11/18 09:46:36;;;;;;;21.00;14.48;;;;;;;;;;6268729;28;20060;-65
2022/11/18 09:49:39;;;;;;;21.27;14.55;;;;;;;;;;6265544;28;20103;-66
2022/11/18 09:53:01;;;;;;;20.48;13.02;;;;;;;;;;6270020;28;20052;-65
2022/11/18 09:56:03;;;;;;;22.35;15.20;;;;;;;;;;6266758;28;20054;-65
2022/11/18 09:59:05;;;;;;;20.70;15.40;;;;;;;;;;6269152;28;20057;-65
2022/11/18 10:02:26;;;;;;;21.90;15.52;;;;;;;;;;6267915;28;20053;-65
2022/11/18 10:05:31;;;;;;;19.73;13.98;;;;;;;;;;6272195;28;20057;-65
2022/11/18 10:08:40;;;;;;;18.15;13.35;;;;;;;;;;6271683;28;20049;-66
2022/11/18 10:11:49;;;;;;;17.17;12.73;;;;;;;;;;6269345;28;20057;-65
2022/11/18 10:15:03;;;;;;;17.52;11.75;;;;;;;;;;6266112;28;20045;-62
2022/11/18 10:18:17;;;;;;;19.27;11.65;;;;;;;;;;6264264;28;20347;-64
2022/11/18 10:21:23;;;;;;;19.55;13.13;;;;;;;;;;6264362;28;20081;-65
2022/11/18 10:24:30;;;;;;;18.95;14.70;;;;;;;;;;6266383;28;20049;-65
2022/11/18 10:27:35;;;;;;;18.48;14.10;;;;;;;;;;6269036;28;20045;-65
2022/11/18 10:30:37;;;;;;;18.40;13.60;;;;;;;;;;6264673;28;20059;-66
2022/11/18 10:33:39;;;;;;;18.98;13.10;;;;;;;;;;6258470;28;20092;-65
2022/11/18 10:36:40;;;;;;;15.38;11.32;;;;;;;;;;6264473;28;20053;-66
2022/11/18 10:39:51;;;;;;;17.30;12.80;;;;;;;;;;6260810;28;20534;-66
2022/11/18 10:42:53;;;;;;;23.08;14.10;;;;;;;;;;6268531;28;20037;-65
2022/11/18 10:45:55;;;;;;;15.48;11.57;;;;;;;;;;6260542;28;20053;-66
2022/11/18 10:49:13;;;;;;;16.90;12.30;;;;;;;;;;6259013;28;20076;-66
2022/11/18 10:52:15;;;;;;;12.77;9.80;;;;;;;;;;6266060;28;20071;-65
2022/11/18 10:55:24;;;;;;;18.00;11.93;;;;;;;;;;6252143;28;20060;-65
2022/11/18 10:58:26;;;;;;;15.40;11.75;;;;;;;;;;6265727;28;20064;-66
2022/11/18 11:01:28;;;;;;;13.73;10.37;;;;;;;;;;6262932;28;20057;-66
2022/11/18 11:04:30;;;;;;;13.30;11.25;;;;;;;;;;6268094;28;20049;-65
2022/11/18 11:07:34;;;;;;;12.90;10.30;;;;;;;;;;6266147;28;20061;-65
2022/11/18 11:10:38;;;;;;;10.85;8.82;;;;;;;;;;6265621;28;20041;-65
2022/11/18 11:13:43;;;;;;;12.38;9.23;;;;;;;;;;6266523;28;20057;-67
2022/11/18 11:16:49;;;;;;;43.08;32.90;;;;;;;;;;6269030;28;20106;-66
2022/11/18 11:19:53;;;;;;;35.83;28.05;;;;;;;;;;6267256;28;20049;-65
2022/11/18 11:22:54;;;;;;;18.98;15.00;;;;;;;;;;6264212;28;20048;-65
2022/11/18 11:26:00;;;;;;;14.13;10.80;;;;;;;;;;6269016;28;20057;-65
2022/11/18 11:29:06;;;;;;;12.88;9.00;;;;;;;;;;6265315;28;20053;-65
2022/11/18 11:32:16;;;;;;;11.32;8.65;;;;;;;;;;6264961;28;20356;-67
2022/11/18 11:35:21;;;;;;;11.40;8.55;;;;;;;;;;6258136;28;20053;-65
2022/11/18 11:38:31;;;;;;;8.48;7.07;;;;;;;;;;6265595;28;20057;-66
2022/11/18 11:41:41;;;;;;;9.73;7.88;;;;;;;;;;6272096;28;20053;-66
2022/11/18 11:44:54;;;;;;;10.43;7.25;;;;;;;;;;6273078;28;20543;-67
2022/11/18 11:48:11;;;;;;;8.48;7.30;;;;;;;;;;6271274;28;20045;-67
2022/11/18 11:51:16;;;;;;;10.02;7.45;;;;;;;;;;6269441;28;20178;-66
2022/11/18 11:54:40;;;;;;;9.85;8.25;;;;;;;;;;6271646;28;20107;-66
2022/11/18 11:57:46;;;;;;;;;;;;;;;;;;6267853;28;20053;-66
2022/11/18 12:00:55;;;;;;;9.07;7.28;;;;;;;;;;6271080;28;19924;-66
2022/11/18 12:04:02;;;;;;;8.18;6.47;;;;;;;;;;6250117;28;20219;-66
2022/11/18 12:07:06;;;;;;;9.70;7.53;;;;;;;;;;6266624;28;20062;-64
2022/11/18 12:10:25;;;;;;;8.18;6.78;;;;;;;;;;6264218;28;20325;-66
2022/11/18 12:13:36;;;;;;;9.90;7.70;;;;;;;;;;6262497;28;20060;-66
2022/11/18 12:16:45;;;;;;;7.95;6.95;;;;;;;;;;6265985;28;20053;-64
2022/11/18 12:19:47;;;;;;;9.32;7.75;;;;;;;;;;6260654;28;21154;-66
2022/11/18 12:23:14;;;;;;;8.57;7.63;;;;;;;;;;6266161;28;20103;-67
2022/11/18 12:26:33;;;;;;;8.77;6.30;;;;;;;;;;6267117;28;20056;-67
2022/11/18 12:29:53;;;;;;;8.80;6.90;;;;;;;;;;6264615;28;20049;-67
2022/11/18 12:32:56;;;;;;;8.10;6.60;;;;;;;;;;6268347;28;20203;-67
2022/11/18 12:35:57;;;;;;;8.95;7.10;;;;;;;;;;6264059;28;20057;-65
2022/11/18 12:39:00;;;;;;;9.40;7.97;;;;;;;;;;6271827;28;20060;-66
2022/11/18 12:45:54;;;;;;;9.85;7.97;;;;;;;;;;6270623;28;20052;-66
2022/11/18 12:48:55;;;;;;;16.20;8.00;;;;;;;;;;6150832;28;20046;-67
2022/11/18 12:51:58;;;;;;;10.88;8.20;;;;;;;;;;6148717;28;20267;-68
2022/11/18 12:55:01;;;;;;;11.05;8.35;;;;;;;;;;6148639;28;20090;-68
2022/11/18 12:58:03;;;;;;;11.25;8.48;;;;;;;;;;6146677;28;20052;-66
2022/11/18 13:01:12;;;;;;;11.45;8.82;;;;;;;;;;6146713;28;20071;-70
2022/11/18 13:04:18;;;;;;;13.45;8.40;;;;;;;;;;6146889;28;20050;-66
2022/11/18 13:10:45;;;;;;;10.30;7.70;;;;;;;;;;6145800;28;20106;-66
2022/11/18 13:13:47;;;;;;;10.25;7.85;;;;;;;;;;6143022;28;20062;-66
2022/11/18 13:20:22;;;;;;;14.82;8.82;;;;;;;;;;6141517;28;20043;-66
2022/11/18 13:26:47;;;;;;;11.60;8.98;;;;;;;;;;6266592;28;20072;-66
2022/11/18 13:29:51;;;;;;;13.02;9.32;;;;;;;;;;6265681;28;20099;-65
2022/11/18 13:32:58;;;;;;;11.45;8.80;;;;;;;;;;6257510;28;20046;-65
2022/11/18 13:36:00;;;;;;;12.43;9.45;;;;;;;;;;6264793;28;20053;-67
2022/11/18 13:39:05;;;;;;;11.73;8.98;;;;;;;;;;6260211;28;20080;-66
2022/11/18 13:42:16;;;;;;;13.38;9.20;;;;;;;;;;6264564;28;20064;-66
2022/11/18 13:45:18;;;;;;;12.57;9.52;;;;;;;;;;6267213;28;20048;-66
2022/11/18 13:48:21;;;;;;;12.60;10.05;;;;;;;;;;6265521;28;20052;-65
2022/11/18 13:51:23;;;;;;;10.30;7.95;;;;;;;;;;6266302;28;20256;-65
2022/11/18 13:54:26;;;;;;;12.85;9.13;;;;;;;;;;6264902;28;20297;-66
2022/11/18 13:57:28;;;;;;;14.57;9.30;;;;;;;;;;6267273;28;20049;-65
2022/11/18 14:00:32;;;;;;;11.97;8.73;;;;;;;;;;6265663;28;20049;-65
2022/11/18 14:03:38;;;;;;;13.68;10.25;;;;;;;;;;6268459;28;20241;-65
2022/11/18 14:06:41;;;;;;;13.07;9.80;;;;;;;;;;6266097;28;20130;-66
2022/11/18 14:09:53;;;;;;;17.93;11.37;;;;;;;;;;6267401;28;20075;-66
2022/11/18 14:12:58;;;;;;;13.55;10.15;;;;;;;;;;6265196;28;20045;-68
2022/11/18 14:16:02;;;;;;;15.20;10.60;;;;;;;;;;6267757;28;20107;-67
2022/11/18 14:19:05;;;;;;;14.77;10.90;;;;;;;;;;6267455;28;20329;-67
2022/11/18 14:22:12;;;;;;;13.93;10.40;;;;;;;;;;6266737;28;21225;-68
2022/11/18 14:25:19;;;;;;;14.57;10.35;;;;;;;;;;6268703;28;20049;-66
2022/11/18 14:28:23;;;;;;;12.05;9.10;;;;;;;;;;6263566;28;20074;-66
2022/11/18 14:31:26;;;;;;;12.27;9.23;;;;;;;;;;6266859;28;20103;-66
2022/11/18 14:34:29;;;;;;;13.90;9.95;;;;;;;;;;6265022;28;20177;-66
2022/11/18 14:37:31;;;;;;;15.48;11.32;;;;;;;;;;6263934;28;20496;-66
2022/11/18 14:40:33;;;;;;;16.75;12.20;;;;;;;;;;6265314;28;20057;-66
2022/11/18 14:43:35;;;;;;;21.38;13.85;;;;;;;;;;6263617;28;20055;-66
2022/11/18 14:46:37;;;;;;;19.50;13.75;;;;;;;;;;6263890;28;20320;-66
2022/11/18 14:49:40;;;;;;;24.75;16.02;;;;;;;;;;6256855;28;20297;-65
2022/11/18 14:52:42;;;;;;;21.23;15.30;;;;;;;;;;6266854;28;20200;-67
2022/11/18 14:55:44;;;;;;;19.40;14.25;;;;;;;;;;6254384;28;20054;-68
2022/11/18 14:58:46;;;;;;;25.77;14.65;;;;;;;;;;6265060;28;20049;-66
2022/11/18 15:01:48;;;;;;;20.65;13.65;;;;;;;;;;6258083;28;20072;-67
2022/11/18 15:04:51;;;;;;;21.08;14.27;;;;;;;;;;6267858;28;20178;-66
2022/11/18 15:07:53;;;;;;;19.88;13.90;;;;;;;;;;6271244;28;20057;-68
2022/11/18 15:10:54;;;;;;;20.98;15.07;;;;;;;;;;6266782;28;20372;-68
2022/11/18 15:13:56;;;;;;;21.65;14.77;;;;;;;;;;6266226;28;20222;-68
2022/11/18 15:16:58;;;;;;;24.70;16.77;;;;;;;;;;6265788;28;20093;-66
2022/11/18 15:20:03;;;;;;;20.95;14.95;;;;;;;;;;6266115;28;20084;-68
2022/11/18 15:23:04;;;;;;;22.67;14.93;;;;;;;;;;6267348;28;20049;-68
2022/11/18 15:26:15;;;;;;;20.80;14.93;;;;;;;;;;6267510;28;20057;-66
2022/11/18 15:29:19;;;;;;;21.42;14.82;;;;;;;;;;6266626;28;21304;-66
2022/11/18 15:32:21;;;;;;;22.45;16.10;;;;;;;;;;6267067;28;20060;-66
2022/11/18 15:35:25;;;;;;;22.10;14.80;;;;;;;;;;6268554;28;20041;-66
2022/11/18 15:38:26;;;;;;;19.52;14.38;;;;;;;;;;6270192;28;20049;-67
2022/11/18 15:41:29;;;;;;;19.90;14.55;;;;;;;;;;6268960;28;20053;-66
2022/11/18 15:44:31;;;;;;;21.17;15.37;;;;;;;;;;6266070;28;20049;-67
2022/11/18 15:47:33;;;;;;;23.85;15.40;;;;;;;;;;6269149;28;20052;-66
2022/11/18 15:50:36;;;;;;;21.90;15.35;;;;;;;;;;6267513;28;20061;-67
2022/11/18 15:53:38;;;;;;;23.38;14.68;;;;;;;;;;6267365;28;20049;-66
2022/11/18 15:56:40;;;;;;;23.25;15.48;;;;;;;;;;6269564;28;20057;-67
2022/11/18 15:59:43;;;;;;;19.35;13.85;;;;;;;;;;6268167;28;20438;-67
2022/11/18 16:02:44;;;;;;;20.10;14.38;;;;;;;;;;6268124;28;20343;-65
2022/11/18 16:05:47;;;;;;;19.05;13.63;;;;;;;;;;6268492;28;20061;-66
2022/11/18 16:08:49;;;;;;;20.27;13.67;;;;;;;;;;6268957;28;20128;-67
2022/11/18 16:18:38;;;;;;;31.83;13.95;;;;;;;;;;6184463;28;20058;-66
2022/11/18 16:21:45;;;;;;;39.30;22.48;;;;;;;;;;6191826;28;20070;-66
2022/11/18 16:24:46;;;;;;;32.30;19.15;;;;;;;;;;6192899;28;20382;-66
2022/11/18 16:27:48;;;;;;;23.65;14.60;;;;;;;;;;6189598;28;20116;-65
2022/11/18 16:34:12;;;;;;;19.83;13.02;;;;;;;;;;6188219;28;20055;-64
2022/11/18 16:37:15;;;;;;;18.60;13.07;;;;;;;;;;6193647;28;20051;-64
2022/11/18 16:40:17;;;;;;;24.50;14.33;;;;;;;;;;6188888;28;20334;-65
2022/11/18 16:43:18;;;;;;;19.35;12.45;;;;;;;;;;6193922;28;20465;-64
2022/11/18 16:46:20;;;;;;;22.45;12.45;;;;;;;;;;6189792;28;20278;-65
2022/11/18 16:49:24;;;;;;;17.25;11.85;;;;;;;;;;6192810;28;20108;-64
2022/11/18 16:52:27;;;;;;;20.70;12.90;;;;;;;;;;6265579;28;20045;-64
2022/11/18 16:55:29;;;;;;;16.90;10.73;;;;;;;;;;6261610;28;20151;-64
2022/11/18 16:58:31;;;;;;;15.93;10.98;;;;;;;;;;6266101;28;20049;-64
2022/11/18 17:01:33;;;;;;;21.00;12.00;;;;;;;;;;6268001;28;20057;-66
2022/11/18 17:04:37;;;;;;;17.70;11.90;;;;;;;;;;6265651;28;20186;-66
2022/11/18 17:07:40;;;;;;;;;;;;;;;;;;6266735;28;20056;-66
2022/11/18 17:10:41;;;;;;;16.48;11.73;;;;;;;;;;6262867;28;19925;-66
2022/11/18 17:13:44;;;;;;;17.75;10.75;;;;;;;;;;6267290;28;20136;-66
2022/11/18 17:16:46;;;;;;;15.02;10.82;;;;;;;;;;6263783;28;20040;-66
2022/11/18 17:19:47;;;;;;;16.10;11.30;;;;;;;;;;6266771;28;20053;-65
2022/11/18 17:22:52;;;;;;;15.27;10.45;;;;;;;;;;6266756;28;20351;-65
2022/11/18 17:25:54;;;;;;;15.55;11.00;;;;;;;;;;6263077;28;20086;-66
2022/11/18 17:28:56;;;;;;;15.60;11.35;;;;;;;;;;6266720;28;20052;-65
2022/11/18 17:31:58;;;;;;;17.00;10.85;;;;;;;;;;6267354;28;20057;-66
2022/11/18 17:35:00;;;;;;;14.27;10.65;;;;;;;;;;6266134;28;20049;-63
2022/11/18 17:38:03;;;;;;;14.45;10.60;;;;;;;;;;6264478;28;20161;-65
2022/11/18 17:41:05;;;;;;;15.73;10.93;;;;;;;;;;6265640;28;20052;-66
2022/11/18 17:44:09;;;;;;;13.80;9.63;;;;;;;;;;6266235;28;20049;-66
2022/11/18 17:47:10;;;;;;;13.45;9.32;;;;;;;;;;6271144;28;20056;-66
2022/11/18 17:50:12;;;;;;;12.15;8.88;;;;;;;;;;6275292;28;20103;-66
2022/11/18 17:53:16;;;;;;;13.93;9.25;;;;;;;;;;6266188;28;20083;-65
2022/11/18 17:56:18;;;;;;;14.43;8.80;;;;;;;;;;6269201;28;20049;-65
2022/11/18 17:59:20;;;;;;;12.55;8.52;;;;;;;;;;6268504;28;20052;-65
2022/11/18 18:02:21;;;;;;;11.57;8.20;;;;;;;;;;6269693;28;20709;-65
2022/11/18 18:05:23;;;;;;;13.60;9.02;;;;;;;;;;6261758;28;20057;-68
2022/11/18 18:08:26;;;;;;;12.13;8.65;;;;;;;;;;6269967;28;20128;-66
2022/11/18 18:11:28;;;;;;;12.43;8.35;;;;;;;;;;6270558;28;20061;-66
2022/11/18 18:14:29;;;;;;;12.55;8.13;;;;;;;;;;6271325;28;20049;-66
2022/11/18 18:17:30;;;;;;;12.45;8.18;;;;;;;;;;6269945;28;20356;-66
2022/11/18 18:20:33;;;;;;;9.75;7.50;;;;;;;;;;6263405;28;20053;-67
2022/11/18 18:23:36;;;;;;;11.93;7.63;;;;;;;;;;6266620;28;20056;-66
2022/11/18 18:26:38;;;;;;;11.83;7.10;;;;;;;;;;6262850;28;20647;-66